Terminal Aerodrome Forecast
Issued by NWS Sterling, VA

Current Version | Previous Version | Graphics & Text | Print | Product List | Glossary On
Versions: 1 2 3 4 5 6 7 8 9 10 11 12 13 14 15 16 17 18 19 20 21 22 23 24 25
730
FTUS41 KLWX 050520
TAFIAD
TAF
KIAD 050520Z 0506/0612 17006KT 5SM -RA BR BKN008 OVC015
     FM050900 19005KT 5SM BR BKN004 OVC015
     FM051400 30008KT P6SM SCT030
     FM051600 30008G16KT P6SM SCT040
     FM052200 33007KT P6SM SCT200
     FM060500 VRB03KT P6SM BKN200=

USA.gov is the U.S. government's official web portal to all federal, state and local government web resources and services.